createdAt,value
2018-02-16T00:01:30.005Z,101733.36
2018-02-16T00:03:59.735Z,101737.61
2018-02-16T00:06:29.884Z,101737.11
2018-02-16T00:09:00.257Z,101744.70
2018-02-16T00:11:30.033Z,101743.31
2018-02-16T00:13:59.786Z,101740.70
2018-02-16T00:16:29.562Z,101747.28
2018-02-16T00:18:59.266Z,101751.83
2018-02-16T00:21:29.104Z,101747.38
2018-02-16T00:23:58.833Z,101751.42
2018-02-16T00:26:28.727Z,101757.60
2018-02-16T00:28:58.564Z,101760.52
2018-02-16T00:31:28.306Z,101757.80
2018-02-16T00:33:58.905Z,101760.03
2018-02-16T00:36:28.767Z,101757.80
2018-02-16T00:38:59.525Z,101755.39
2018-02-16T00:41:29.313Z,101758.93
2018-02-16T00:43:59.088Z,101762.47
2018-02-16T00:46:28.852Z,101766.83
2018-02-16T00:49:05.251Z,101772.45
2018-02-16T00:51:35.032Z,101783.81
2018-02-16T00:54:04.894Z,101791.29
2018-02-16T00:56:34.979Z,101795.23
2018-02-16T00:59:04.899Z,101810.59
2018-02-16T01:01:34.671Z,101804.20
2018-02-16T01:04:05.245Z,101807.84
2018-02-16T01:06:35.368Z,101811.71
2018-02-16T01:09:05.620Z,101817.56
2018-02-16T01:11:35.285Z,101809.79
2018-02-16T01:14:05.077Z,101815.75
2018-02-16T01:16:34.844Z,101812.11
2018-02-16T01:19:04.698Z,101809.67
2018-02-16T01:21:35.157Z,101810.19
2018-02-16T01:24:05.126Z,101817.66
2018-02-16T01:26:35.740Z,101814.34
2018-02-16T01:29:05.480Z,101823.94
2018-02-16T01:31:35.920Z,101834.05
2018-02-16T01:34:05.558Z,101833.84
2018-02-16T01:36:35.535Z,101834.74
2018-02-16T01:39:05.575Z,101835.36
2018-02-16T01:41:35.346Z,101835.97
2018-02-16T01:44:06.014Z,101837.98
2018-02-16T01:46:35.727Z,101838.48
2018-02-16T01:49:05.707Z,101841.02
2018-02-16T01:51:36.134Z,101837.08
2018-02-16T01:54:06.682Z,101842.95
2018-02-16T01:56:36.801Z,101843.45
2018-02-16T01:59:07.605Z,101846.28
2018-02-16T02:01:37.556Z,101845.58
2018-02-16T02:04:07.282Z,101847.47
2018-02-16T02:06:37.098Z,101841.31
2018-02-16T02:09:07.661Z,101849.28
2018-02-16T02:11:37.444Z,101853.23
2018-02-16T02:14:07.292Z,101854.57
2018-02-16T02:16:37.041Z,101869.31
2018-02-16T02:19:07.782Z,101869.93
2018-02-16T02:21:37.612Z,101873.05
2018-02-16T02:24:07.571Z,101872.55
2018-02-16T02:26:37.492Z,101870.01
2018-02-16T02:29:07.183Z,101870.22
2018-02-16T02:31:36.977Z,101872.43
2018-02-16T02:34:07.031Z,101876.94
2018-02-16T02:36:36.762Z,101879.27
2018-02-16T02:39:07.595Z,101885.64
2018-02-16T02:41:38.291Z,101888.06
2018-02-16T02:44:08.927Z,101894.27
2018-02-16T02:46:38.859Z,101899.52
2018-02-16T02:49:08.704Z,101899.52
2018-02-16T02:51:39.568Z,101905.27
2018-02-16T02:54:09.297Z,101909.30
2018-02-16T02:56:39.068Z,101909.49
2018-02-16T02:59:08.892Z,101910.73
2018-02-16T03:01:38.596Z,101918.62
2018-02-16T03:04:08.447Z,101915.59
2018-02-16T03:06:38.238Z,101924.36
2018-02-16T03:09:08.081Z,101922.05
2018-02-16T03:11:38.060Z,101933.88
2018-02-16T03:14:07.743Z,101941.86
2018-02-16T03:16:38.512Z,101938.94
2018-02-16T03:19:08.497Z,101935.28
2018-02-16T03:21:39.284Z,101938.62
2018-02-16T03:24:09.363Z,101938.94
2018-02-16T03:26:39.036Z,101940.66
2018-02-16T03:29:08.961Z,101945.52
2018-02-16T03:31:38.780Z,101949.84
2018-02-16T03:34:09.491Z,101941.77
2018-02-16T03:36:39.276Z,101953.79
2018-02-16T03:39:09.487Z,101953.67
2018-02-16T03:41:39.185Z,101947.44
2018-02-16T03:44:08.944Z,101954.28
2018-02-16T03:46:38.832Z,101957.59
2018-02-16T03:49:08.696Z,101961.75
2018-02-16T03:51:39.273Z,101961.95
2018-02-16T03:54:09.043Z,101963.62
2018-02-16T03:56:39.588Z,101963.73
2018-02-16T03:59:09.264Z,101968.80
2018-02-16T04:01:40.572Z,101972.59
2018-02-16T04:04:10.416Z,101974.32
2018-02-16T04:06:40.524Z,101968.97
2018-02-16T04:09:10.406Z,101970.89
2018-02-16T04:11:40.092Z,101980.38
2018-02-16T04:14:10.656Z,101977.13
2018-02-16T04:16:40.497Z,101982.29
2018-02-16T04:19:10.336Z,101990.98
2018-02-16T04:21:40.805Z,101998.47
2018-02-16T04:24:10.509Z,102002.77
2018-02-16T04:26:40.424Z,102009.13
2018-02-16T04:29:10.143Z,102001.98
2018-02-16T04:31:40.180Z,102011.06
2018-02-16T04:34:10.104Z,102011.33
2018-02-16T04:36:39.984Z,102009.02
2018-02-16T04:39:09.669Z,102017.09
2018-02-16T04:41:40.150Z,102013.44
2018-02-16T04:44:10.013Z,102022.22
2018-02-16T04:46:40.596Z,102022.71
2018-02-16T04:49:10.435Z,102031.83
2018-02-16T04:51:41.181Z,102029.70
2018-02-16T04:54:11.623Z,102023.08
2018-02-16T04:56:41.340Z,102021.14
2018-02-16T04:59:11.054Z,102025.56
2018-02-16T05:01:40.862Z,102025.17
2018-02-16T05:04:10.539Z,102036.86
2018-02-16T05:06:41.676Z,102048.62
2018-02-16T05:09:12.203Z,102059.41
2018-02-16T05:11:42.716Z,102061.30
2018-02-16T05:14:12.510Z,102061.36
2018-02-16T05:16:42.557Z,102063.08
2018-02-16T05:19:12.275Z,102061.64
2018-02-16T05:21:42.008Z,102060.94
2018-02-16T05:24:12.658Z,102060.91
2018-02-16T05:26:42.432Z,102064.94
2018-02-16T05:29:12.110Z,102057.58
2018-02-16T05:31:42.115Z,102077.70
2018-02-16T05:34:11.806Z,102073.16
2018-02-16T05:36:41.891Z,102079.16
2018-02-16T05:39:13.305Z,102084.08
2018-02-16T05:41:43.200Z,102089.02
2018-02-16T05:44:12.960Z,102089.95
2018-02-16T05:46:43.013Z,102090.44
2018-02-16T05:49:12.764Z,102093.97
2018-02-16T05:51:42.592Z,102094.94
2018-02-16T05:54:19.040Z,102094.02
2018-02-16T05:56:48.739Z,102102.77
2018-02-16T05:59:18.444Z,102105.79
2018-02-16T06:01:48.199Z,102111.23
2018-02-16T06:04:18.005Z,102117.29
2018-02-16T06:06:47.839Z,102121.94
2018-02-16T06:09:18.481Z,102119.82
2018-02-16T06:11:48.964Z,102121.44
2018-02-16T06:14:19.723Z,102120.80
2018-02-16T06:16:50.374Z,102122.88
2018-02-16T06:19:20.923Z,102128.67
2018-02-16T06:21:51.112Z,102126.62
2018-02-16T06:24:21.988Z,102134.09
2018-02-16T06:26:51.842Z,102127.39
2018-02-16T06:29:21.609Z,102137.70
2018-02-16T06:31:52.317Z,102138.16
2018-02-16T06:34:22.855Z,102143.41
2018-02-16T06:36:53.376Z,102145.82
2018-02-16T06:39:23.015Z,102154.27
2018-02-16T06:41:52.722Z,102156.05
2018-02-16T06:44:22.645Z,102164.94
2018-02-16T06:46:52.345Z,102174.28
2018-02-16T06:49:23.240Z,102175.70
2018-02-16T06:51:52.940Z,102178.55
2018-02-16T06:54:22.664Z,102170.70
2018-02-16T06:56:52.700Z,102174.78
2018-02-16T06:59:23.183Z,102173.47
2018-02-16T07:01:52.929Z,102179.72
2018-02-16T07:04:22.803Z,102179.89
2018-02-16T07:06:52.665Z,102180.48
2018-02-16T07:09:23.145Z,102190.39
2018-02-16T07:11:53.792Z,102194.84
2018-02-16T07:14:23.588Z,102204.47
2018-02-16T07:16:53.535Z,102195.72
2018-02-16T07:19:23.255Z,102201.64
2018-02-16T07:21:53.982Z,102202.73
2018-02-16T07:24:23.820Z,102208.63
2018-02-16T07:26:54.953Z,102212.48
2018-02-16T07:29:25.429Z,102213.59
2018-02-16T07:31:56.808Z,102227.94
2018-02-16T07:34:27.121Z,102228.25
2018-02-16T07:36:57.152Z,102229.61
2018-02-16T07:39:27.745Z,102229.70
2018-02-16T07:41:57.675Z,102229.97
2018-02-16T07:44:28.233Z,102237.39
2018-02-16T07:46:58.792Z,102241.38
2018-02-16T07:49:28.780Z,102245.30
2018-02-16T07:51:58.614Z,102243.98
2018-02-16T07:54:29.490Z,102253.88
2018-02-16T07:56:59.207Z,102252.81
2018-02-16T07:59:29.204Z,102255.95
2018-02-16T08:01:59.033Z,102256.14
2018-02-16T08:04:28.858Z,102264.48
2018-02-16T08:06:58.720Z,102267.73
2018-02-16T08:09:28.859Z,102270.16
2018-02-16T08:11:58.725Z,102280.52
2018-02-16T08:14:29.055Z,102282.59
2018-02-16T08:16:58.897Z,102281.67
2018-02-16T08:19:28.843Z,102287.37
2018-02-16T08:21:58.959Z,102299.21
2018-02-16T08:24:30.746Z,102299.35
2018-02-16T08:29:41.275Z,102295.02
2018-02-16T08:32:11.043Z,102304.13
2018-02-16T08:34:40.808Z,102298.44
2018-02-16T08:37:10.650Z,102301.81
2018-02-16T08:39:40.365Z,102305.84
2018-02-16T08:42:10.329Z,102311.23
2018-02-16T08:44:40.900Z,102312.55
2018-02-16T08:47:12.115Z,102316.41
2018-02-16T08:49:42.916Z,102324.40
2018-02-16T08:52:12.895Z,102327.95
2018-02-16T08:54:42.651Z,102338.00
2018-02-16T08:57:12.856Z,102335.62
2018-02-16T08:59:42.743Z,102341.20
2018-02-16T09:02:12.519Z,102339.86
2018-02-16T09:04:43.055Z,102336.81
2018-02-16T09:07:13.600Z,102339.63
2018-02-16T09:09:43.345Z,102340.61
2018-02-16T09:12:14.122Z,102339.36
2018-02-16T09:14:44.619Z,102339.86
2018-02-16T09:17:14.411Z,102344.92
2018-02-16T09:19:44.401Z,102351.30
2018-02-16T09:22:15.180Z,102362.89
2018-02-16T09:24:44.938Z,102361.69
2018-02-16T09:27:15.814Z,102371.46
2018-02-16T09:29:45.717Z,102366.97
2018-02-16T09:32:15.497Z,102361.88
2018-02-16T09:34:46.060Z,102371.83
2018-02-16T09:37:18.748Z,102374.47
2018-02-16T09:39:52.797Z,102382.80
2018-02-16T09:42:22.708Z,102391.03
2018-02-16T09:44:52.483Z,102391.80
2018-02-16T09:47:22.420Z,102397.78
2018-02-16T09:49:53.793Z,102395.34
2018-02-16T09:52:23.532Z,102400.34
2018-02-16T09:54:53.253Z,102402.69
2018-02-16T09:57:23.166Z,102410.28
2018-02-16T09:59:52.922Z,102411.23
2018-02-16T10:02:23.536Z,102415.68
2018-02-16T10:04:53.405Z,102416.97
2018-02-16T10:07:24.039Z,102415.99
2018-02-16T10:09:54.549Z,102419.59
2018-02-16T10:12:25.137Z,102423.70
2018-02-16T10:14:55.132Z,102419.88
2018-02-16T10:17:24.874Z,102424.13
2018-02-16T10:19:55.193Z,102421.57
2018-02-16T10:22:24.877Z,102425.30
2018-02-16T10:24:56.251Z,102422.44
2018-02-16T10:27:26.038Z,102424.94
2018-02-16T10:29:55.796Z,102429.39
2018-02-16T10:32:27.179Z,102434.05
2018-02-16T10:34:57.827Z,102429.28
2018-02-16T10:37:28.092Z,102432.98
2018-02-16T10:39:58.133Z,102422.87
2018-02-16T10:42:28.041Z,102426.13
2018-02-16T10:45:03.123Z,102425.77
2018-02-16T10:47:33.093Z,102429.14
2018-02-16T10:50:02.799Z,102432.63
2018-02-16T10:52:33.284Z,102433.30
2018-02-16T10:55:03.128Z,102436.52
2018-02-16T10:57:33.031Z,102432.23
2018-02-16T11:00:03.145Z,102434.47
2018-02-16T11:02:37.042Z,102429.75
2018-02-16T11:05:11.308Z,102430.92
2018-02-16T11:13:51.988Z,102442.05
2018-02-16T11:16:21.796Z,102444.19
2018-02-16T11:18:52.446Z,102444.25
2018-02-16T11:21:22.323Z,102439.93
2018-02-16T11:23:52.293Z,102446.39
2018-02-16T11:26:22.155Z,102455.00
2018-02-16T11:28:52.075Z,102451.69
2018-02-16T11:31:21.820Z,102444.11
2018-02-16T11:33:51.723Z,102453.32
2018-02-16T11:36:21.473Z,102446.94
2018-02-16T11:38:51.275Z,102439.66
2018-02-16T11:41:21.099Z,102446.94
2018-02-16T11:43:51.597Z,102444.31
2018-02-16T11:46:21.374Z,102439.03
2018-02-16T11:48:51.148Z,102438.15
2018-02-16T11:51:20.997Z,102436.32
2018-02-16T11:53:50.700Z,102444.18
2018-02-16T11:56:20.504Z,102441.63
2018-02-16T11:58:51.291Z,102440.10
2018-02-16T12:01:21.081Z,102449.67
2018-02-16T12:03:51.158Z,102444.09
2018-02-16T12:06:21.770Z,102446.38
2018-02-16T12:08:51.677Z,102447.28
2018-02-16T12:11:21.804Z,102457.52
2018-02-16T12:13:51.541Z,102444.30
2018-02-16T12:16:22.049Z,102448.61
2018-02-16T12:18:51.938Z,102440.96
2018-02-16T12:21:21.880Z,102438.08
2018-02-16T12:23:51.707Z,102450.70
2018-02-16T12:26:22.277Z,102447.69
2018-02-16T12:28:52.115Z,102446.55
2018-02-16T12:31:22.049Z,102447.88
2018-02-16T12:33:51.768Z,102452.17
2018-02-16T12:36:22.705Z,102442.75
2018-02-16T12:38:52.513Z,102449.10
2018-02-16T12:41:22.327Z,102444.63
2018-02-16T12:43:52.015Z,102441.14
2018-02-16T12:46:21.804Z,102442.88
2018-02-16T12:48:51.768Z,102435.61
2018-02-16T12:51:21.642Z,102438.39
2018-02-16T12:53:51.508Z,102435.31
2018-02-16T12:56:22.270Z,102438.59
2018-02-16T12:58:51.985Z,102442.97
2018-02-16T13:01:21.794Z,102440.59
2018-02-16T13:03:52.233Z,102439.41
2018-02-16T13:06:22.149Z,102436.63
2018-02-16T13:08:51.900Z,102444.58
2018-02-16T13:11:21.860Z,102446.30
2018-02-16T13:13:51.944Z,102450.39
2018-02-16T13:16:21.812Z,102438.25
2018-02-16T13:18:51.613Z,102441.27
2018-02-16T13:21:21.740Z,102447.67
2018-02-16T13:23:51.588Z,102440.52
2018-02-16T13:26:21.548Z,102437.33
2018-02-16T13:28:52.049Z,102433.29
2018-02-16T13:31:21.951Z,102432.77
2018-02-16T13:33:51.736Z,102430.04
2018-02-16T13:36:22.908Z,102432.77
2018-02-16T13:38:52.732Z,102439.34
2018-02-16T13:41:22.520Z,102437.69
2018-02-16T13:43:52.479Z,102436.86
2018-02-16T13:46:22.272Z,102438.52
2018-02-16T13:48:52.208Z,102440.58
2018-02-16T13:51:22.672Z,102434.43
2018-02-16T13:53:52.640Z,102434.11
2018-02-16T13:56:22.408Z,102435.16
2018-02-16T13:58:59.103Z,102431.20
2018-02-16T14:01:29.128Z,102424.44
2018-02-16T14:04:00.695Z,102425.75
2018-02-16T14:06:31.696Z,102424.98
2018-02-16T14:09:01.655Z,102424.17
2018-02-16T14:11:31.591Z,102424.87
2018-02-16T14:14:01.284Z,102427.03
2018-02-16T14:16:36.419Z,102422.13
2018-02-16T14:19:06.976Z,102434.59
2018-02-16T14:21:38.403Z,102431.18
2018-02-16T14:24:11.985Z,102430.09
2018-02-16T14:26:42.230Z,102427.66
2018-02-16T14:29:12.967Z,102431.83
2018-02-16T14:31:43.460Z,102442.33
2018-02-16T14:34:13.322Z,102437.00
2018-02-16T14:36:43.233Z,102436.67
2018-02-16T14:39:13.933Z,102434.11
2018-02-16T14:41:43.812Z,102439.72
2018-02-16T14:44:13.645Z,102437.88
2018-02-16T14:46:43.548Z,102438.42
2018-02-16T14:49:13.352Z,102433.78
2018-02-16T14:51:43.508Z,102437.26
2018-02-16T14:54:13.503Z,102436.07
2018-02-16T14:56:43.316Z,102434.43
2018-02-16T14:59:13.132Z,102435.07
2018-02-16T15:01:43.026Z,102427.84
2018-02-16T15:04:12.980Z,102433.18
2018-02-16T15:06:42.731Z,102426.42
2018-02-16T15:09:12.746Z,102426.19
2018-02-16T15:11:43.278Z,102430.04
2018-02-16T15:14:15.000Z,102433.18
2018-02-16T15:16:44.747Z,102430.50
2018-02-16T15:19:15.724Z,102436.23
2018-02-16T15:21:45.800Z,102435.89
2018-02-16T15:24:15.645Z,102436.00
2018-02-16T15:26:46.730Z,102429.73
2018-02-16T15:29:16.833Z,102432.66
2018-02-16T15:31:47.381Z,102430.86
2018-02-16T15:34:17.988Z,102430.91
2018-02-16T15:36:48.635Z,102426.89
2018-02-16T15:39:18.718Z,102427.25
2018-02-16T15:41:51.873Z,102434.16
2018-02-16T15:44:23.158Z,102427.22
2018-02-16T15:46:53.092Z,102433.45
2018-02-16T15:49:22.953Z,102426.32
2018-02-16T15:51:53.917Z,102431.95
2018-02-16T15:54:24.808Z,102436.34
2018-02-16T15:56:54.567Z,102433.05
2018-02-16T15:59:25.102Z,102435.84
2018-02-16T16:01:55.147Z,102444.95
2018-02-16T16:04:27.087Z,102439.56
2018-02-16T16:06:57.023Z,102434.80
2018-02-16T16:09:28.443Z,102437.72
2018-02-16T16:11:58.345Z,102436.98
2018-02-16T16:14:28.267Z,102446.36
2018-02-16T16:16:58.284Z,102447.77
2018-02-16T16:19:28.404Z,102450.80
2018-02-16T16:21:58.416Z,102444.72
2018-02-16T16:24:28.562Z,102444.03
2018-02-16T16:26:58.603Z,102444.89
2018-02-16T16:29:28.777Z,102445.89
2018-02-16T16:31:58.575Z,102451.16
2018-02-16T16:34:29.667Z,102457.59
2018-02-16T16:37:01.960Z,102453.67
2018-02-16T16:39:33.341Z,102453.55
2018-02-16T16:42:03.232Z,102459.98
2018-02-16T16:44:36.406Z,102469.04
2018-02-16T16:47:06.168Z,102469.30
2018-02-16T16:49:37.219Z,102470.42
2018-02-16T16:52:07.007Z,102469.38
2018-02-16T16:54:36.892Z,102472.68
2018-02-16T16:57:06.740Z,102477.91
2018-02-16T16:59:37.251Z,102479.29
2018-02-16T17:02:09.904Z,102478.38
2018-02-16T17:04:39.658Z,102486.81
2018-02-16T17:07:10.497Z,102491.13
2018-02-16T17:09:40.757Z,102487.28
2018-02-16T17:12:10.602Z,102496.58
2018-02-16T17:14:40.338Z,102489.19
2018-02-16T17:17:11.044Z,102490.99
2018-02-16T17:19:40.952Z,102495.89
2018-02-16T17:22:10.985Z,102487.70
2018-02-16T17:24:41.006Z,102493.01
2018-02-16T17:27:11.528Z,102484.89
2018-02-16T17:29:42.201Z,102495.70
2018-02-16T17:32:11.968Z,102488.48
2018-02-16T17:34:42.001Z,102484.97
2018-02-16T17:37:12.572Z,102482.24
2018-02-16T17:39:43.945Z,102481.27
2018-02-16T17:42:13.628Z,102485.13
2018-02-16T17:44:43.792Z,102481.09
2018-02-16T17:47:13.540Z,102474.80
2018-02-16T17:49:45.197Z,102477.74
2018-02-16T17:52:14.986Z,102471.16
2018-02-16T17:54:45.308Z,102469.05
2018-02-16T17:57:16.424Z,102467.43
2018-02-16T17:59:46.311Z,102469.34
2018-02-16T18:02:16.635Z,102468.55
2018-02-16T18:04:46.446Z,102470.19
2018-02-16T18:07:17.369Z,102469.05
2018-02-16T18:09:47.231Z,102474.46
2018-02-16T18:12:17.739Z,102470.02
2018-02-16T18:14:47.586Z,102474.89
2018-02-16T18:17:18.626Z,102472.34
2018-02-16T18:19:49.883Z,102473.17
2018-02-16T18:22:21.520Z,102472.36
2018-02-16T18:24:51.401Z,102466.45
2018-02-16T18:27:23.121Z,102469.20
2018-02-16T18:29:53.741Z,102470.94
2018-02-16T18:32:23.683Z,102476.43
2018-02-16T18:34:54.874Z,102478.16
2018-02-16T18:37:25.204Z,102479.78
2018-02-16T18:39:55.590Z,102477.23
2018-02-16T18:42:25.334Z,102488.52
2018-02-16T18:44:56.313Z,102491.45
2018-02-16T18:47:26.867Z,102486.34
2018-02-16T18:49:57.928Z,102478.22
2018-02-16T18:52:27.690Z,102480.48
2018-02-16T18:54:58.959Z,102476.70
2018-02-16T18:57:29.560Z,102476.20
2018-02-16T18:59:59.955Z,102478.63
2018-02-16T19:02:30.503Z,102467.66
2018-02-16T19:05:00.366Z,102463.69
2018-02-16T19:07:31.828Z,102462.46
2018-02-16T19:10:01.728Z,102463.98
2018-02-16T19:12:32.189Z,102464.59
2018-02-16T19:15:02.180Z,102462.78
2018-02-16T19:17:33.373Z,102461.25
2018-02-16T19:20:03.260Z,102461.67
2018-02-16T19:22:33.404Z,102465.30
2018-02-16T19:25:03.706Z,102472.70
2018-02-16T19:27:34.010Z,102476.54
2018-02-16T19:30:03.898Z,102475.00
2018-02-16T19:32:41.466Z,102476.72
2018-02-16T19:35:12.475Z,102479.02
2018-02-16T19:37:42.248Z,102479.56
2018-02-16T19:40:13.898Z,102476.73
2018-02-16T19:42:43.748Z,102480.59
2018-02-16T19:45:13.976Z,102474.25
2018-02-16T19:47:44.052Z,102473.56
2018-02-16T19:50:14.218Z,102476.70
2018-02-16T19:52:44.075Z,102478.55
2018-02-16T19:55:14.979Z,102476.59
2018-02-16T19:57:44.830Z,102478.92
2018-02-16T20:00:15.452Z,102480.83
2018-02-16T20:02:45.470Z,102485.41
2018-02-16T20:05:16.253Z,102503.44
2018-02-16T20:07:46.349Z,102512.65
2018-02-16T20:10:17.066Z,102514.91
2018-02-16T20:12:46.912Z,102514.47
2018-02-16T20:15:17.471Z,102508.78
2018-02-16T20:17:47.597Z,102505.61
2018-02-16T20:20:17.602Z,102498.97
2018-02-16T20:22:47.711Z,102491.87
2018-02-16T20:25:17.441Z,102476.30
2018-02-16T20:27:47.944Z,102466.72
2018-02-16T20:30:17.908Z,102463.83
2018-02-16T20:32:47.764Z,102458.86
2018-02-16T20:35:18.312Z,102456.50
2018-02-16T20:37:49.780Z,102449.58
2018-02-16T20:40:19.921Z,102463.76
2018-02-16T20:42:50.008Z,102458.14
2018-02-16T20:45:19.832Z,102457.45
2018-02-16T20:47:49.650Z,102467.94
2018-02-16T20:50:19.558Z,102463.11
2018-02-16T20:52:49.544Z,102458.91
2018-02-16T20:55:19.597Z,102459.79
2018-02-16T20:57:49.373Z,102462.74
2018-02-16T21:00:19.140Z,102468.57
2018-02-16T21:02:49.353Z,102464.94
2018-02-16T21:05:19.296Z,102467.91
2018-02-16T21:07:50.586Z,102461.41
2018-02-16T21:10:20.465Z,102456.42
2018-02-16T21:12:51.872Z,102466.50
2018-02-16T21:15:21.912Z,102469.92
2018-02-16T21:17:52.285Z,102469.84
2018-02-16T21:20:22.109Z,102473.87
2018-02-16T21:22:52.201Z,102476.97
2018-02-16T21:25:22.373Z,102474.99
2018-02-16T21:27:54.349Z,102481.69
2018-02-16T21:30:24.581Z,102491.80
2018-02-16T21:32:54.524Z,102488.71
2018-02-16T21:35:25.736Z,102486.00
2018-02-16T21:37:55.622Z,102489.27
2018-02-16T21:40:25.797Z,102494.03
2018-02-16T21:42:56.368Z,102504.17
2018-02-16T21:45:29.756Z,102497.84
2018-02-16T21:47:59.665Z,102492.25
2018-02-16T21:50:30.935Z,102490.17
2018-02-16T21:53:00.834Z,102484.75
2018-02-16T21:55:30.960Z,102480.11
2018-02-16T21:58:00.930Z,102474.08
2018-02-16T22:00:31.029Z,102472.09
2018-02-16T22:03:01.037Z,102467.30
2018-02-16T22:05:31.138Z,102465.35
2018-02-16T22:08:01.380Z,102462.41
2018-02-16T22:10:31.190Z,102465.45
2018-02-16T22:13:02.340Z,102466.91
2018-02-16T22:15:32.131Z,102465.45
2018-02-16T22:18:02.091Z,102461.95
2018-02-16T22:20:32.724Z,102455.34
2018-02-16T22:23:02.902Z,102451.77
2018-02-16T22:25:32.647Z,102445.84
2018-02-16T22:28:03.007Z,102437.65
2018-02-16T22:30:32.947Z,102443.98
2018-02-16T22:33:03.090Z,102443.32
2018-02-16T22:35:32.985Z,102436.03
2018-02-16T22:38:03.464Z,102427.25
2018-02-16T22:40:33.939Z,102428.45
2018-02-16T22:43:05.664Z,102424.80
2018-02-16T22:45:36.429Z,102423.82
2018-02-16T22:48:08.337Z,102417.91
2018-02-16T22:50:38.072Z,102411.61
2018-02-16T22:53:09.235Z,102408.23
2018-02-16T22:55:39.268Z,102404.81
2018-02-16T22:58:09.395Z,102398.66
2018-02-16T23:00:39.212Z,102400.08
2018-02-16T23:03:09.439Z,102399.14
2018-02-16T23:05:39.227Z,102408.95
2018-02-16T23:08:09.354Z,102412.23
2018-02-16T23:10:39.353Z,102413.55
2018-02-16T23:13:09.427Z,102423.88
2018-02-16T23:15:39.330Z,102431.33
2018-02-16T23:18:09.362Z,102429.70
2018-02-16T23:20:39.168Z,102435.38
2018-02-16T23:23:10.063Z,102426.42
2018-02-16T23:25:40.156Z,102426.56
2018-02-16T23:28:11.072Z,102432.94
2018-02-16T23:30:41.172Z,102433.90
2018-02-16T23:33:11.826Z,102442.94
2018-02-16T23:35:42.317Z,102437.77
2018-02-16T23:38:12.161Z,102439.08
2018-02-16T23:40:42.394Z,102439.13
2018-02-16T23:43:12.153Z,102443.98
2018-02-16T23:45:43.457Z,102442.58
2018-02-16T23:48:13.325Z,102443.52
2018-02-16T23:50:44.586Z,102441.70
2018-02-16T23:53:15.105Z,102438.97
2018-02-16T23:55:47.206Z,102440.86
2018-02-16T23:58:17.000Z,102434.42
